Time;durP1;ratioP1;P1;durP2;ratioP2;P2;SDS_P1;SDS_P2;PMS_P1;PMS_P2;Temp;Humidity;BMP_temperature;BMP_pressure;BME280_temperature;BME280_humidity;BME280_pressure;Samples;Min_cycle;Max_cycle;Signal;HPM_P1;HPM_P2
2021/11/11 00:00:33;;;;;;;22.23;11.97;;;8.00;99.90;;;;;;4969714;28;20233;-49
2021/11/11 00:03:01;;;;;;;27.73;13.27;;;7.90;99.90;;;;;;4967825;28;20218;-51
2021/11/11 00:05:28;;;;;;;24.23;12.83;;;7.70;99.90;;;;;;4970093;28;20211;-50
2021/11/11 00:07:55;;;;;;;22.47;11.60;;;7.70;99.90;;;;;;4973536;28;20292;-49
2021/11/11 00:10:23;;;;;;;22.63;12.30;;;7.70;99.90;;;;;;4973754;28;20281;-49
2021/11/11 00:12:51;;;;;;;27.90;13.57;;;7.50;99.90;;;;;;4971701;28;20293;-51
2021/11/11 00:15:19;;;;;;;27.17;13.40;;;7.50;99.90;;;;;;4974497;28;20959;-52
2021/11/11 00:17:46;;;;;;;21.23;13.40;;;7.50;99.90;;;;;;4976091;28;20324;-50
2021/11/11 00:20:16;;;;;;;24.00;13.50;;;7.60;99.90;;;;;;4980174;28;20274;-50
2021/11/11 00:22:44;;;;;;;23.23;13.53;;;7.60;99.90;;;;;;4980475;28;20727;-52
2021/11/11 00:25:13;;;;;;;29.43;14.03;;;7.60;99.90;;;;;;4979340;28;20283;-50
2021/11/11 00:27:40;;;;;;;20.50;12.93;;;7.60;99.90;;;;;;4978499;28;20254;-51
2021/11/11 00:30:10;;;;;;;23.03;13.17;;;7.50;99.90;;;;;;4981257;28;20296;-50
2021/11/11 00:32:39;;;;;;;24.33;13.33;;;7.50;99.90;;;;;;4978650;28;20203;-51
2021/11/11 00:35:12;;;;;;;24.53;13.80;;;7.50;99.90;;;;;;4981905;28;20215;-51
2021/11/11 00:37:39;;;;;;;25.83;14.30;;;7.50;99.90;;;;;;4979728;28;20927;-50
2021/11/11 00:40:07;;;;;;;26.20;13.53;;;7.50;99.90;;;;;;4982316;28;20228;-49
2021/11/11 00:42:35;;;;;;;22.83;12.73;;;7.60;99.90;;;;;;4978057;28;20334;-51
2021/11/11 00:45:02;;;;;;;26.80;13.83;;;7.60;99.90;;;;;;4980870;28;20299;-50
2021/11/11 00:47:29;;;;;;;24.83;13.10;;;7.60;99.90;;;;;;4976892;28;20250;-49
2021/11/11 00:49:56;;;;;;;23.87;13.17;;;7.60;99.90;;;;;;4978718;28;20323;-49
2021/11/11 00:52:23;;;;;;;28.27;13.33;;;7.70;99.90;;;;;;4975572;28;20235;-50
2021/11/11 00:54:50;;;;;;;22.67;12.40;;;7.70;99.90;;;;;;4980767;28;20291;-52
2021/11/11 00:57:17;;;;;;;25.53;12.77;;;7.60;99.90;;;;;;4976131;28;20804;-50
2021/11/11 00:59:43;;;;;;;30.83;13.50;;;7.60;99.90;;;;;;4977749;28;20922;-50
2021/11/11 01:02:10;;;;;;;27.40;13.30;;;7.50;99.90;;;;;;4977777;28;20243;-51
2021/11/11 01:04:39;;;;;;;24.70;13.53;;;7.50;99.90;;;;;;4979772;28;20239;-50
2021/11/11 01:07:07;;;;;;;25.93;14.33;;;7.60;99.90;;;;;;4976064;28;20234;-50
2021/11/11 01:09:34;;;;;;;24.37;13.07;;;7.50;99.90;;;;;;4960380;28;20385;-50
2021/11/11 01:12:03;;;;;;;22.93;13.00;;;7.40;99.90;;;;;;4977387;28;20293;-49
2021/11/11 01:14:30;;;;;;;27.17;13.27;;;7.30;99.90;;;;;;4980322;28;20235;-50
2021/11/11 01:16:56;;;;;;;27.27;13.37;;;7.30;99.90;;;;;;4959401;28;20293;-50
2021/11/11 01:19:24;;;;;;;27.53;14.57;;;7.30;99.90;;;;;;4979972;28;20256;-51
2021/11/11 01:21:52;;;;;;;29.47;13.77;;;7.50;99.90;;;;;;4976533;28;20875;-50
2021/11/11 01:24:20;;;;;;;23.83;13.57;;;7.70;99.90;;;;;;4979788;28;20243;-52
2021/11/11 01:26:47;;;;;;;29.63;13.47;;;7.80;99.90;;;;;;4977726;28;20304;-50
2021/11/11 01:29:14;;;;;;;25.83;13.73;;;7.60;99.90;;;;;;4979190;28;20330;-51
2021/11/11 01:31:41;;;;;;;27.23;14.23;;;7.60;99.90;;;;;;4975903;28;20227;-49
2021/11/11 01:34:08;;;;;;;27.47;13.73;;;7.60;99.90;;;;;;4977120;28;20294;-49
2021/11/11 01:36:35;;;;;;;28.30;14.27;;;7.70;99.90;;;;;;4977975;28;20299;-48
2021/11/11 01:39:04;;;;;;;23.03;13.07;;;7.90;99.90;;;;;;4979833;28;20211;-50
2021/11/11 01:41:32;;;;;;;29.97;13.73;;;7.80;99.90;;;;;;4979594;28;20641;-49
2021/11/11 01:43:59;;;;;;;22.90;14.10;;;7.90;99.90;;;;;;4978437;28;20218;-49
2021/11/11 01:46:27;;;;;;;29.13;13.10;;;8.00;99.90;;;;;;4977537;28;20628;-49
2021/11/11 01:48:54;;;;;;;23.87;13.60;;;7.80;99.90;;;;;;4978189;28;20219;-49
2021/11/11 01:51:22;;;;;;;27.87;14.20;;;7.80;99.90;;;;;;4975369;28;20222;-52
2021/11/11 01:53:50;;;;;;;27.90;14.10;;;7.80;99.90;;;;;;4978360;28;20204;-50
2021/11/11 01:56:20;;;;;;;26.23;13.50;;;8.10;99.90;;;;;;4979464;28;20262;-50
2021/11/11 01:58:47;;;;;;;24.00;13.57;;;8.20;99.90;;;;;;4980031;28;20199;-52
2021/11/11 02:01:15;;;;;;;24.07;12.47;;;8.30;99.90;;;;;;4980567;28;20732;-50
2021/11/11 02:03:42;;;;;;;30.27;14.47;;;8.40;99.90;;;;;;4979430;28;20245;-49
2021/11/11 02:06:09;;;;;;;28.63;13.57;;;8.30;3.70;;;;;;4980204;28;20625;-49
2021/11/11 02:08:36;;;;;;;25.97;12.60;;;8.00;99.90;;;;;;4980248;28;20272;-51
2021/11/11 02:11:04;;;;;;;26.03;13.50;;;8.20;99.90;;;;;;4978629;28;20212;-48
2021/11/11 02:13:31;;;;;;;29.33;13.53;;;8.30;99.90;;;;;;4961085;28;20205;-51
2021/11/11 02:15:58;;;;;;;28.13;13.03;;;8.50;99.90;;;;;;4977912;28;20214;-49
2021/11/11 02:18:25;;;;;;;26.70;13.77;;;8.30;99.90;;;;;;4978647;28;20237;-50
2021/11/11 02:20:52;;;;;;;27.87;13.87;;;8.20;99.90;;;;;;4978057;28;20211;-49
2021/11/11 02:23:20;;;;;;;27.90;14.37;;;8.40;99.90;;;;;;4981154;28;20331;-52
2021/11/11 02:25:47;;;;;;;24.23;13.60;;;8.50;99.90;;;;;;4973895;28;20245;-51
2021/11/11 02:28:17;;;;;;;26.87;13.43;;;8.60;99.90;;;;;;4978283;28;20209;-48
2021/11/11 02:30:48;;;;;;;28.00;13.10;;;8.40;99.90;;;;;;4977443;28;20629;-49
2021/11/11 02:33:19;;;;;;;27.47;15.03;;;8.20;99.90;;;;;;4977761;28;20204;-49
2021/11/11 02:35:46;;;;;;;27.20;13.87;;;8.30;99.90;;;;;;4979906;28;20306;-51
2021/11/11 02:38:14;;;;;;;24.60;13.23;;;8.40;99.90;;;;;;4976672;28;20300;-50
2021/11/11 02:40:42;;;;;;;24.43;13.73;;;8.40;99.90;;;;;;4977363;28;20271;-50
2021/11/11 02:43:11;;;;;;;24.13;13.70;;;8.30;99.90;;;;;;4975691;28;20236;-50
2021/11/11 02:45:43;;;;;;;26.73;14.27;;;8.40;99.90;;;;;;4977275;28;20200;-52
2021/11/11 02:48:12;;;;;;;29.33;14.57;;;8.40;99.90;;;;;;4978432;28;20237;-50
2021/11/11 02:50:40;;;;;;;28.40;14.57;;;8.10;99.90;;;;;;4978959;28;20232;-49
2021/11/11 02:53:09;;;;;;;28.80;14.13;;;8.20;99.90;;;;;;4978902;28;20295;-48
2021/11/11 02:55:36;;;;;;;25.80;13.83;;;8.30;99.90;;;;;;4978045;28;20238;-49
2021/11/11 02:58:04;;;;;;;26.70;13.87;;;8.60;99.90;;;;;;4977711;28;20261;-50
2021/11/11 03:00:39;;;;;;;29.87;13.93;;;8.50;99.90;;;;;;4977249;28;20314;-49
2021/11/11 03:03:07;;;;;;;24.07;14.03;;;8.50;99.90;;;;;;4977632;28;20260;-51
2021/11/11 03:05:35;;;;;;;26.57;13.87;;;8.30;99.90;;;;;;4977438;28;20198;-50
2021/11/11 03:08:02;;;;;;;24.47;15.23;;;8.10;99.90;;;;;;4976867;28;20235;-50
2021/11/11 03:10:31;;;;;;;25.33;13.93;;;7.80;99.90;;;;;;4978648;28;20309;-50
2021/11/11 03:12:59;;;;;;;26.23;14.47;;;7.80;99.90;;;;;;4977211;28;20823;-50
2021/11/11 03:15:28;;;;;;;28.07;14.27;;;7.80;99.90;;;;;;4978785;28;20619;-49
2021/11/11 03:17:56;;;;;;;20.50;13.43;;;7.70;99.90;;;;;;4977247;28;20199;-51
2021/11/11 03:20:23;;;;;;;26.87;14.87;;;7.70;99.90;;;;;;4976939;28;20303;-50
2021/11/11 03:22:50;;;;;;;24.13;13.63;;;7.70;99.90;;;;;;4975548;28;20328;-49
2021/11/11 03:25:20;;;;;;;30.53;13.30;;;7.60;99.90;;;;;;4978684;28;20254;-51
2021/11/11 03:27:48;;;;;;;27.13;14.57;;;7.60;99.90;;;;;;4975532;28;21105;-50
2021/11/11 03:30:17;;;;;;;23.47;13.83;;;7.70;99.90;;;;;;4979813;28;20243;-48
2021/11/11 03:32:45;;;;;;;27.53;14.97;;;7.60;99.90;;;;;;4960520;28;20286;-49
2021/11/11 03:35:13;;;;;;;26.10;14.27;;;7.60;99.90;;;;;;4978905;28;20201;-51
2021/11/11 03:37:41;;;;;;;25.73;14.60;;;7.60;99.90;;;;;;4977744;28;20284;-50
2021/11/11 03:40:16;;;;;;;28.47;15.03;;;7.70;99.90;;;;;;4978633;28;20268;-52
2021/11/11 03:42:46;;;;;;;27.37;14.47;;;7.60;99.90;;;;;;4978065;28;20307;-51
2021/11/11 03:45:14;;;;;;;27.93;14.87;;;7.70;99.90;;;;;;4979021;28;20317;-51
2021/11/11 03:47:42;;;;;;;29.90;15.80;;;7.70;99.90;;;;;;4976805;28;20272;-50
2021/11/11 03:50:10;;;;;;;26.80;14.00;;;7.70;99.90;;;;;;4977218;28;21401;-49
2021/11/11 03:52:37;;;;;;;29.73;14.77;;;7.70;99.90;;;;;;4976610;28;20691;-50
2021/11/11 03:55:05;;;;;;;28.13;14.23;;;7.80;99.90;;;;;;4980579;28;20238;-52
2021/11/11 03:57:32;;;;;;;26.30;14.80;;;7.60;99.90;;;;;;4981177;28;20232;-50
2021/11/11 03:59:59;;;;;;;28.43;14.43;;;7.50;99.90;;;;;;4981435;28;20640;-51
2021/11/11 04:02:25;;;;;;;27.40;14.40;;;7.50;99.90;;;;;;4981730;28;20970;-51
2021/11/11 04:04:53;;;;;;;28.50;15.13;;;7.50;99.90;;;;;;4983309;28;20623;-51
2021/11/11 04:07:20;;;;;;;27.37;13.90;;;7.60;99.90;;;;;;4981073;28;20751;-50
2021/11/11 04:09:49;;;;;;;24.10;14.17;;;7.60;99.90;;;;;;4982669;28;20223;-52
2021/11/11 04:12:16;;;;;;;26.33;13.77;;;7.60;99.90;;;;;;4978207;28;20255;-52
2021/11/11 04:14:43;;;;;;;27.27;15.53;;;7.60;99.90;;;;;;4979117;28;20267;-50
2021/11/11 04:17:10;;;;;;;27.77;14.33;;;7.90;99.90;;;;;;4978896;28;20668;-49
2021/11/11 04:19:36;;;;;;;24.33;14.20;;;7.70;99.90;;;;;;4980403;28;20317;-50
2021/11/11 04:22:05;;;;;;;24.77;14.03;;;7.60;99.90;;;;;;4980762;28;20704;-50
2021/11/11 04:24:33;;;;;;;27.40;14.60;;;7.60;99.90;;;;;;4981105;28;20647;-48
2021/11/11 04:27:12;;;;;;;24.47;14.20;;;7.90;99.90;;;;;;4979963;28;20238;-50
2021/11/11 04:29:44;;;;;;;28.63;14.53;;;7.80;99.90;;;;;;4979967;28;20317;-49
2021/11/11 04:32:13;;;;;;;24.30;14.33;;;7.80;99.90;;;;;;4981028;28;20559;-50
2021/11/11 04:34:42;;;;;;;29.17;14.20;;;7.80;99.90;;;;;;4980006;28;20293;-51
2021/11/11 04:47:59;;;;;;;26.97;14.20;;;8.10;99.90;;;;;;4980399;28;20214;-52
2021/11/11 05:03:43;;;;;;;30.77;14.43;;;8.00;99.90;;;;;;4979188;28;20230;-51
2021/11/11 05:06:11;;;;;;;25.60;14.43;;;8.00;99.90;;;;;;4980547;28;20349;-50
2021/11/11 05:08:39;;;;;;;27.03;14.63;;;8.30;99.90;;;;;;4978082;28;20241;-50
2021/11/11 05:11:06;;;;;;;25.00;14.33;;;8.40;99.90;;;;;;4977514;28;20219;-50
2021/11/11 05:13:33;;;;;;;24.97;13.47;;;8.40;99.90;;;;;;4981388;28;20200;-48
2021/11/11 05:16:00;;;;;;;27.93;14.70;;;8.40;99.90;;;;;;4978270;28;20256;-49
2021/11/11 05:18:27;;;;;;;26.63;12.90;;;8.20;99.90;;;;;;4962642;28;20227;-48
2021/11/11 05:20:59;;;;;;;25.60;13.80;;;8.00;99.90;;;;;;4981593;28;20233;-52
2021/11/11 05:23:27;;;;;;;23.90;13.57;;;8.00;99.90;;;;;;4980059;28;20237;-50
2021/11/11 05:25:55;;;;;;;24.33;13.37;;;8.00;99.90;;;;;;4979393;28;20244;-50
2021/11/11 05:28:22;;;;;;;27.47;14.77;;;8.10;99.90;;;;;;4978651;28;20658;-49
2021/11/11 05:30:49;;;;;;;26.83;14.03;;;8.10;99.90;;;;;;4980885;28;20337;-50
2021/11/11 05:33:17;;;;;;;26.27;13.97;;;8.20;99.90;;;;;;4979675;28;20211;-49
2021/11/11 05:35:44;;;;;;;23.20;13.30;;;8.30;99.90;;;;;;4979734;28;20784;-50
2021/11/11 05:38:15;;;;;;;25.67;13.00;;;8.40;99.90;;;;;;4979793;28;20212;-50
2021/11/11 05:40:42;;;;;;;25.57;15.67;;;8.30;99.90;;;;;;4979224;28;20212;-49
2021/11/11 05:43:09;;;;;;;26.73;13.53;;;8.30;99.90;;;;;;4978872;28;20630;-51
2021/11/11 05:45:36;;;;;;;27.20;15.30;;;8.30;99.90;;;;;;4979728;28;20301;-50
2021/11/11 05:48:03;;;;;;;23.93;14.13;;;8.30;99.90;;;;;;4980428;28;20218;-49
2021/11/11 05:50:30;;;;;;;23.93;14.03;;;8.30;99.90;;;;;;4979548;28;20302;-48
2021/11/11 05:52:57;;;;;;;22.03;13.37;;;8.30;99.90;;;;;;4978597;28;20269;-51
2021/11/11 05:55:24;;;;;;;28.87;14.87;;;8.40;99.90;;;;;;4978619;28;20293;-50
2021/11/11 05:57:51;;;;;;;24.73;13.73;;;8.30;99.90;;;;;;4976484;28;20753;-48
2021/11/11 06:00:20;;;;;;;24.97;13.03;;;8.20;99.90;;;;;;4979149;28;20235;-48
2021/11/11 06:02:47;;;;;;;24.30;15.10;;;8.10;99.90;;;;;;4982546;28;20716;-48
2021/11/11 06:05:15;;;;;;;24.53;13.43;;;8.00;99.90;;;;;;4981263;28;20212;-49
2021/11/11 06:07:42;;;;;;;27.07;14.53;;;7.90;99.90;;;;;;4982019;28;20529;-50
2021/11/11 06:10:10;;;;;;;25.50;14.07;;;8.10;99.90;;;;;;4978637;28;20742;-49
2021/11/11 06:12:37;;;;;;;22.77;13.40;;;8.00;99.90;;;;;;4978141;28;20278;-50
2021/11/11 06:15:05;;;;;;;27.17;14.43;;;8.00;99.90;;;;;;4977947;28;20253;-51
2021/11/11 06:17:32;;;;;;;22.70;13.80;;;8.10;99.90;;;;;;4979622;28;20238;-50
2021/11/11 06:20:00;;;;;;;21.43;13.03;;;8.00;99.90;;;;;;4980117;28;20230;-49
2021/11/11 06:22:29;;;;;;;27.70;14.80;;;8.20;99.90;;;;;;4976722;28;20322;-49
2021/11/11 06:24:55;;;;;;;27.57;14.23;;;8.20;99.90;;;;;;4979522;28;20632;-50
2021/11/11 06:27:22;;;;;;;20.70;13.70;;;8.30;99.90;;;;;;4977580;28;20251;-49
2021/11/11 06:29:49;;;;;;;27.27;15.20;;;8.40;99.90;;;;;;4960923;28;20230;-50
2021/11/11 06:32:16;;;;;;;21.43;13.40;;;8.30;99.90;;;;;;4980411;28;20204;-51
2021/11/11 06:35:04;;;;;;;22.17;13.17;;;8.20;99.90;;;;;;4981404;28;20519;-50
2021/11/11 06:37:32;;;;;;;22.40;12.80;;;8.10;99.90;;;;;;4982533;28;20243;-49
2021/11/11 06:39:58;;;;;;;25.43;13.37;;;8.10;99.90;;;;;;4963007;28;20202;-51
2021/11/11 06:42:25;;;;;;;22.10;13.93;;;8.30;99.90;;;;;;4978892;28;20209;-50
2021/11/11 06:44:52;;;;;;;26.17;13.83;;;8.40;99.90;;;;;;4979125;28;20295;-50
2021/11/11 06:47:19;;;;;;;23.60;14.07;;;8.50;99.90;;;;;;4977244;28;20343;-49
2021/11/11 06:49:46;;;;;;;19.67;12.90;;;8.60;99.90;;;;;;4980172;28;20646;-50
2021/11/11 06:52:13;;;;;;;31.50;14.47;;;8.60;99.90;;;;;;4977179;28;20305;-50
2021/11/11 06:54:41;;;;;;;27.27;13.80;;;8.60;99.90;;;;;;4979411;28;20645;-49
2021/11/11 06:57:09;;;;;;;24.13;13.90;;;8.70;99.90;;;;;;4977372;28;20267;-48
2021/11/11 06:59:36;;;;;;;24.37;14.23;;;8.70;99.90;;;;;;4976855;28;20289;-48
2021/11/11 07:02:04;;;;;;;25.13;13.80;;;8.70;99.90;;;;;;4973969;28;20210;-48
2021/11/11 07:04:31;;;;;;;24.40;13.43;;;8.60;99.90;;;;;;4978260;28;20208;-50
2021/11/11 07:06:58;;;;;;;23.67;15.03;;;8.30;99.90;;;;;;4978746;28;20622;-50
2021/11/11 07:09:25;;;;;;;24.63;15.00;;;8.20;99.90;;;;;;4979737;28;20233;-49
2021/11/11 07:11:52;;;;;;;25.33;14.57;;;8.10;99.90;;;;;;4978126;28;20297;-50
2021/11/11 07:14:20;;;;;;;25.37;14.37;;;8.20;99.90;;;;;;4978713;28;20202;-49
2021/11/11 07:16:47;;;;;;;29.90;15.13;;;7.90;99.90;;;;;;4978216;28;20218;-49
2021/11/11 07:19:14;;;;;;;22.30;13.87;;;7.90;99.90;;;;;;4974365;28;20298;-49
2021/11/11 07:21:41;;;;;;;28.40;14.70;;;7.90;99.90;;;;;;4956694;28;20329;-48
2021/11/11 07:24:08;;;;;;;27.07;14.40;;;8.10;99.90;;;;;;4959636;28;20212;-50
2021/11/11 07:26:35;;;;;;;28.03;15.27;;;8.20;99.90;;;;;;4960337;28;20206;-49
2021/11/11 07:29:02;;;;;;;24.33;14.20;;;8.40;99.90;;;;;;4964808;28;20233;-48
2021/11/11 07:31:29;;;;;;;29.77;15.17;;;8.30;99.90;;;;;;4963219;28;20220;-49
2021/11/11 07:33:57;;;;;;;20.80;12.97;;;8.10;99.90;;;;;;4965487;28;20539;-49
2021/11/11 07:36:25;;;;;;;24.80;14.73;;;8.20;99.90;;;;;;4960919;28;20203;-50
2021/11/11 07:38:53;;;;;;;23.03;14.73;;;8.30;99.90;;;;;;4962987;28;20207;-48
2021/11/11 07:41:20;;;;;;;26.83;15.13;;;8.30;99.90;;;;;;4962586;28;20308;-50
2021/11/11 07:43:48;;;;;;;24.30;15.37;;;8.20;99.90;;;;;;4960235;28;20233;-50
2021/11/11 07:46:15;;;;;;;25.53;15.70;;;8.10;99.90;;;;;;4962023;28;20303;-49
2021/11/11 07:48:42;;;;;;;27.77;14.43;;;8.20;99.90;;;;;;4961467;28;20303;-48
2021/11/11 07:51:09;;;;;;;28.17;15.10;;;8.40;99.90;;;;;;4959287;28;20277;-49
2021/11/11 07:53:36;;;;;;;23.60;14.23;;;8.40;99.90;;;;;;4960908;28;20214;-50
2021/11/11 07:56:03;;;;;;;27.37;14.57;;;8.40;99.90;;;;;;4959610;28;20306;-49
2021/11/11 07:58:30;;;;;;;24.77;14.10;;;8.40;99.90;;;;;;4960185;28;20286;-48
2021/11/11 08:00:58;;;;;;;27.10;15.53;;;8.50;99.90;;;;;;4960256;28;21036;-49
2021/11/11 08:03:25;;;;;;;25.50;14.17;;;8.40;99.90;;;;;;4961180;28;20285;-49
2021/11/11 08:05:52;;;;;;;26.63;15.47;;;8.40;99.90;;;;;;4960832;28;20217;-48
2021/11/11 08:08:18;;;;;;;26.17;15.00;;;8.50;99.90;;;;;;4962982;28;20301;-48
2021/11/11 08:10:45;;;;;;;29.97;16.00;;;8.60;99.90;;;;;;4960289;28;20289;-49
2021/11/11 08:13:13;;;;;;;26.57;15.07;;;8.50;99.90;;;;;;4961766;28;20617;-49
2021/11/11 08:15:40;;;;;;;23.93;14.17;;;8.40;99.90;;;;;;4959909;28;20217;-48
2021/11/11 08:18:08;;;;;;;24.50;14.03;;;8.50;99.90;;;;;;4960217;28;20238;-52
2021/11/11 08:20:37;;;;;;;29.27;14.67;;;8.40;99.90;;;;;;4960211;28;20353;-49
2021/11/11 08:23:04;;;;;;;23.30;14.57;;;8.30;99.90;;;;;;4975915;28;20770;-51
2021/11/11 08:25:32;;;;;;;30.90;15.43;;;8.20;99.90;;;;;;4979054;28;20666;-49
2021/11/11 08:27:59;;;;;;;31.37;16.23;;;8.20;99.90;;;;;;4980035;28;20719;-50
2021/11/11 08:30:26;;;;;;;26.60;15.03;;;8.30;99.90;;;;;;4976158;28;20308;-49
2021/11/11 08:32:54;;;;;;;27.57;15.00;;;8.40;99.90;;;;;;4979873;28;20246;-50
2021/11/11 08:35:22;;;;;;;29.37;14.63;;;8.40;99.90;;;;;;4978321;28;20203;-52
2021/11/11 08:37:49;;;;;;;28.73;14.93;;;8.60;99.90;;;;;;4977866;28;20961;-57
2021/11/11 08:40:17;;;;;;;23.77;15.27;;;8.60;99.90;;;;;;4976459;28;20357;-57
2021/11/11 08:42:47;;;;;;;26.47;14.90;;;8.40;99.90;;;;;;4976173;28;20238;-57
2021/11/11 08:45:14;;;;;;;27.23;15.37;;;8.40;99.90;;;;;;4975650;28;20361;-53
2021/11/11 08:47:42;;;;;;;25.50;14.40;;;8.40;99.90;;;;;;4976374;28;20382;-58
2021/11/11 08:50:11;;;;;;;27.70;16.10;;;8.60;99.90;;;;;;4960974;28;20341;-57
2021/11/11 08:52:48;;;;;;;26.00;14.73;;;8.60;99.90;;;;;;4978111;28;20667;-56
2021/11/11 08:55:17;;;;;;;24.93;14.83;;;8.50;99.90;;;;;;4978923;28;20760;-59
2021/11/11 08:57:45;;;;;;;28.87;16.13;;;8.70;99.90;;;;;;4973314;28;20219;-52
2021/11/11 09:00:18;;;;;;;25.83;15.60;;;8.90;99.90;;;;;;4978753;28;20212;-52
2021/11/11 09:02:46;;;;;;;25.63;14.70;;;9.00;99.90;;;;;;4975943;28;20258;-53
2021/11/11 09:05:14;;;;;;;24.83;14.97;;;9.00;99.90;;;;;;4979902;28;20689;-54
2021/11/11 09:07:42;;;;;;;25.43;14.80;;;9.10;99.90;;;;;;4977648;28;20735;-53
2021/11/11 09:10:14;;;;;;;27.43;14.10;;;8.70;99.90;;;;;;4975648;28;22501;-52
2021/11/11 09:12:42;;;;;;;25.90;15.27;;;8.50;99.90;;;;;;4976903;28;20207;-54
2021/11/11 09:15:13;;;;;;;26.77;14.33;;;8.70;99.90;;;;;;4978286;28;20624;-53
2021/11/11 09:17:40;;;;;;;22.33;14.63;;;8.60;99.90;;;;;;4976964;28;20212;-53
2021/11/11 09:20:12;;;;;;;27.47;15.30;;;8.60;99.90;;;;;;4979693;28;20221;-54
2021/11/11 09:22:39;;;;;;;24.73;15.40;;;8.90;99.90;;;;;;4977600;28;20244;-59
2021/11/11 09:25:08;;;;;;;26.13;14.70;;;9.10;99.90;;;;;;4975952;28;20265;-52
2021/11/11 09:27:36;;;;;;;22.37;14.53;;;8.90;99.00;;;;;;4976437;28;20198;-51
2021/11/11 09:30:06;;;;;;;28.07;15.07;;;8.80;99.90;;;;;;4977729;28;20286;-54
2021/11/11 09:32:34;;;;;;;20.57;14.53;;;8.80;99.90;;;;;;4977468;28;20233;-53
2021/11/11 09:35:05;;;;;;;24.10;14.57;;;8.90;99.90;;;;;;4980691;28;20680;-52
2021/11/11 09:37:34;;;;;;;23.40;14.27;;;9.10;99.90;;;;;;4977967;28;20657;-54
2021/11/11 09:40:06;;;;;;;22.80;14.20;;;9.10;99.90;;;;;;4977233;28;20572;-53
2021/11/11 09:42:38;;;;;;;22.63;14.60;;;8.90;96.50;;;;;;4975920;28;20209;-53
2021/11/11 09:45:08;;;;;;;26.67;14.63;;;9.00;99.90;;;;;;4978368;28;20858;-51
2021/11/11 09:47:35;;;;;;;24.03;15.00;;;9.20;99.90;;;;;;4976549;28;20681;-54
2021/11/11 09:50:05;;;;;;;26.00;14.60;;;9.20;99.90;;;;;;4977936;28;20199;-52
2021/11/11 09:52:32;;;;;;;25.87;14.90;;;9.40;99.90;;;;;;4977726;28;20230;-52
2021/11/11 10:00:31;;;;;;;21.53;13.53;;;9.10;99.90;;;;;;4979303;28;20303;-52
2021/11/11 10:02:58;;;;;;;22.93;14.50;;;9.10;99.90;;;;;;4979832;28;20225;-54
2021/11/11 10:05:25;;;;;;;22.13;14.27;;;9.10;99.90;;;;;;4979088;28;20215;-54
2021/11/11 10:07:52;;;;;;;22.63;13.83;;;9.40;99.90;;;;;;4978425;28;20698;-54
2021/11/11 10:10:34;;;;;;;25.17;14.47;;;9.50;99.90;;;;;;4977925;28;20282;-53
2021/11/11 10:13:10;;;;;;;25.73;15.07;;;9.70;99.90;;;;;;4977636;28;20237;-53
2021/11/11 10:16:02;;;;;;;19.53;13.77;;;9.40;99.90;;;;;;4978561;28;20298;-52
2021/11/11 10:19:00;;;;;;;25.77;15.00;;;9.20;99.90;;;;;;4981111;28;20622;-53
2021/11/11 10:24:30;;;;;;;24.03;14.10;;;9.50;99.90;;;;;;4976634;28;20230;-53
2021/11/11 10:27:25;;;;;;;22.37;13.77;;;9.50;99.90;;;;;;4978649;28;20205;-53
2021/11/11 10:30:06;;;;;;;22.43;14.27;;;9.50;99.90;;;;;;4976254;28;20283;-53
2021/11/11 10:32:44;;;;;;;22.53;13.97;;;9.70;99.90;;;;;;4977951;28;20321;-52
2021/11/11 10:35:19;;;;;;;23.27;14.37;;;9.80;99.90;;;;;;4981039;28;20659;-52
2021/11/11 10:38:06;;;;;;;20.87;14.10;;;10.00;99.90;;;;;;4978680;28;20286;-53
2021/11/11 10:40:36;;;;;;;20.53;13.70;;;9.90;99.90;;;;;;4977178;28;20670;-52
2021/11/11 10:43:21;;;;;;;21.20;13.63;;;10.00;99.90;;;;;;4977984;28;20253;-54
2021/11/11 10:45:51;;;;;;;22.40;12.37;;;10.10;99.90;;;;;;4978497;28;20255;-52
2021/11/11 10:48:23;;;;;;;20.47;12.70;;;10.10;99.90;;;;;;4979058;28;20212;-52
2021/11/11 10:50:53;;;;;;;19.63;12.90;;;10.00;99.90;;;;;;4980633;28;20253;-54
2021/11/11 10:53:27;;;;;;;21.47;12.77;;;10.00;99.90;;;;;;4977868;28;20291;-51
2021/11/11 10:55:58;;;;;;;15.97;12.57;;;10.10;99.90;;;;;;4977579;28;20231;-52
2021/11/11 10:58:31;;;;;;;19.63;12.43;;;10.00;99.90;;;;;;4974652;28;20240;-53
2021/11/11 11:01:19;;;;;;;19.03;12.47;;;10.10;99.90;;;;;;4977582;28;21013;-52
2021/11/11 11:03:48;;;;;;;19.80;11.93;;;10.30;99.90;;;;;;4979535;28;20205;-52
2021/11/11 11:06:23;;;;;;;21.60;12.20;;;10.40;99.90;;;;;;4978911;28;20247;-51
2021/11/11 11:08:54;;;;;;;21.60;12.37;;;10.40;99.90;;;;;;4979535;28;20250;-52
2021/11/11 11:11:30;;;;;;;19.10;12.13;;;10.40;99.90;;;;;;4977869;28;20334;-52
2021/11/11 11:14:00;;;;;;;23.57;11.60;;;10.50;99.90;;;;;;4977458;28;20205;-52
2021/11/11 11:16:31;;;;;;;22.73;11.73;;;10.50;99.90;;;;;;4978199;28;20220;-54
2021/11/11 11:19:09;;;;;;;19.27;11.90;;;10.60;99.90;;;;;;4977852;28;20224;-54
2021/11/11 11:21:44;;;;;;;20.37;11.97;;;10.60;99.90;;;;;;4977934;28;20292;-52
2021/11/11 11:24:21;;;;;;;19.30;12.17;;;10.50;99.90;;;;;;4978551;28;20242;-52
2021/11/11 11:26:50;;;;;;;19.13;12.53;;;10.50;99.90;;;;;;4979808;28;20298;-52
2021/11/11 11:29:33;;;;;;;16.87;12.10;;;10.60;99.90;;;;;;4978334;28;20276;-52
2021/11/11 11:32:07;;;;;;;20.07;12.20;;;10.50;99.90;;;;;;4978011;28;20342;-54
2021/11/11 11:34:39;;;;;;;20.10;12.33;;;10.50;99.90;;;;;;4980325;28;20201;-54
2021/11/11 11:37:12;;;;;;;27.90;12.43;;;10.70;99.90;;;;;;4978015;28;20300;-53
2021/11/11 11:39:41;;;;;;;19.67;12.50;;;10.50;99.90;;;;;;4978616;28;20236;-52
2021/11/11 11:42:18;;;;;;;18.57;11.80;;;10.60;99.90;;;;;;4978182;28;20212;-54
2021/11/11 11:44:54;;;;;;;22.13;12.50;;;10.70;99.90;;;;;;4979501;28;20243;-53
2021/11/11 11:50:11;;;;;;;25.10;13.07;;;10.90;99.90;;;;;;4978062;28;20286;-52
2021/11/11 11:52:44;;;;;;;19.77;12.67;;;10.90;99.90;;;;;;4978003;28;20263;-51
2021/11/11 11:55:34;;;;;;;19.33;12.17;;;11.00;99.90;;;;;;4979301;28;20272;-53
2021/11/11 12:15:08;;;;;;;28.70;14.20;;;11.30;99.90;;;;;;4979829;28;20202;-52
2021/11/11 12:17:58;;;;;;;26.73;15.10;;;11.30;99.90;;;;;;4974323;28;20228;-52
2021/11/11 12:29:31;;;;;;;25.40;13.20;;;11.50;99.90;;;;;;4980737;28;20688;-53
2021/11/11 12:40:08;;;;;;;26.60;14.47;;;11.60;99.90;;;;;;4981727;28;20233;-52
2021/11/11 12:42:43;;;;;;;29.37;14.77;;;11.60;99.90;;;;;;4978972;28;20329;-51
2021/11/11 12:45:21;;;;;;;26.67;14.23;;;11.70;99.90;;;;;;4982006;28;20292;-54
2021/11/11 12:48:00;;;;;;;29.07;14.77;;;11.80;99.90;;;;;;4981306;28;20208;-52
2021/11/11 12:50:48;;;;;;;26.50;14.43;;;11.80;99.90;;;;;;4981853;28;20653;-51
2021/11/11 12:53:16;;;;;;;28.13;15.73;;;11.80;99.90;;;;;;4980508;28;21148;-52
2021/11/11 12:56:10;;;;;;;26.57;14.87;;;11.90;99.90;;;;;;4980182;28;20252;-51
2021/11/11 12:58:45;;;;;;;24.07;14.17;;;12.00;99.90;;;;;;4981362;28;20217;-54
2021/11/11 13:01:24;;;;;;;23.13;14.10;;;11.90;99.90;;;;;;4979921;28;20233;-54
2021/11/11 13:04:01;;;;;;;21.90;13.07;;;11.90;99.90;;;;;;4980046;28;20323;-52
2021/11/11 13:06:36;;;;;;;23.77;14.87;;;11.80;99.90;;;;;;4981268;28;20222;-52
2021/11/11 13:09:11;;;;;;;22.53;13.70;;;11.90;99.90;;;;;;4981543;28;20224;-54
2021/11/11 13:11:43;;;;;;;19.70;12.90;;;11.80;99.90;;;;;;4981292;28;20592;-53
2021/11/11 13:14:21;;;;;;;19.93;13.30;;;11.70;99.90;;;;;;4977079;28;20360;-53
2021/11/11 13:16:53;;;;;;;20.40;13.23;;;11.60;99.90;;;;;;4980090;28;20212;-52
2021/11/11 13:19:32;;;;;;;20.30;13.23;;;11.50;99.90;;;;;;4981511;28;20333;-54
2021/11/11 13:22:08;;;;;;;19.13;13.10;;;11.50;99.90;;;;;;4979629;28;20318;-52
2021/11/11 15:59:50;;;;;;;16.93;13.20;;;11.70;99.90;;;;;;4981077;28;20247;-52
2021/11/11 16:19:43;;;;;;;21.53;14.23;;;11.90;99.90;;;;;;4981606;28;20675;-51
2021/11/11 16:22:33;;;;;;;19.60;14.03;;;11.70;99.90;;;;;;4989858;28;20856;-51
2021/11/11 16:25:13;;;;;;;21.03;13.73;;;11.80;99.90;;;;;;4998096;28;20657;-52
2021/11/11 16:27:40;;;;;;;18.63;14.20;;;11.60;99.90;;;;;;4996285;28;20225;-52
2021/11/11 16:30:14;;;;;;;19.77;14.90;;;11.60;99.90;;;;;;4995090;28;20206;-51
2021/11/11 16:32:42;;;;;;;19.83;14.73;;;11.60;99.90;;;;;;4998147;28;20236;-51
2021/11/11 16:35:11;;;;;;;18.03;14.83;;;11.50;99.90;;;;;;4998963;28;20282;-51
2021/11/11 16:37:39;;;;;;;22.87;15.43;;;11.50;99.90;;;;;;4997301;28;20222;-51
2021/11/11 16:40:08;;;;;;;24.70;14.77;;;11.50;99.90;;;;;;4997538;28;20199;-51
2021/11/11 16:42:36;;;;;;;20.37;14.03;;;11.50;99.90;;;;;;4994584;28;20748;-51
2021/11/11 16:45:12;;;;;;;20.00;13.27;;;11.70;99.90;;;;;;4999236;28;20317;-50
2021/11/11 16:47:39;;;;;;;18.43;13.60;;;11.70;99.90;;;;;;4994968;28;20212;-51
2021/11/11 16:50:07;;;;;;;21.60;14.77;;;11.40;99.90;;;;;;4995299;28;20239;-54